sensor_id;sensor_type;location;lat;lon;timestamp;pressure;altitude;pressure_sealevel;temperature;humidity
68871;BME280;55906;52.278;6.808;2023-06-14T00:01:47;101384.94;;;19.99;36.12
68871;BME280;55906;52.278;6.808;2023-06-14T00:04:14;101384.06;;;19.99;37.06
68871;BME280;55906;52.278;6.808;2023-06-14T00:06:42;101389.44;;;19.90;36.61
68871;BME280;55906;52.278;6.808;2023-06-14T00:09:10;101377.91;;;19.83;37.02
68871;BME280;55906;52.278;6.808;2023-06-14T00:11:38;101386.81;;;19.82;36.85
68871;BME280;55906;52.278;6.808;2023-06-14T00:14:04;101384.13;;;19.84;36.71
68871;BME280;55906;52.278;6.808;2023-06-14T00:16:33;101391.25;;;19.81;37.07
68871;BME280;55906;52.278;6.808;2023-06-14T00:19:00;101385.94;;;19.75;36.59
68871;BME280;55906;52.278;6.808;2023-06-14T00:21:28;101387.75;;;19.70;37.15
68871;BME280;55906;52.278;6.808;2023-06-14T00:23:55;101383.28;;;19.68;37.22
68871;BME280;55906;52.278;6.808;2023-06-14T00:26:22;101385.97;;;19.66;37.18
68871;BME280;55906;52.278;6.808;2023-06-14T00:28:48;101388.66;;;19.62;37.18
68871;BME280;55906;52.278;6.808;2023-06-14T00:31:15;101390.44;;;19.57;37.38
68871;BME280;55906;52.278;6.808;2023-06-14T00:33:43;101384.19;;;19.52;37.84
68871;BME280;55906;52.278;6.808;2023-06-14T00:36:10;101382.38;;;19.49;37.83
68871;BME280;55906;52.278;6.808;2023-06-14T00:38:37;101385.06;;;19.47;37.84
68871;BME280;55906;52.278;6.808;2023-06-14T00:41:03;101389.50;;;19.47;37.78
68871;BME280;55906;52.278;6.808;2023-06-14T00:43:30;101389.53;;;19.38;38.25
68871;BME280;55906;52.278;6.808;2023-06-14T00:45:56;101388.66;;;19.39;38.04
68871;BME280;55906;52.278;6.808;2023-06-14T00:48:24;101384.19;;;19.35;38.53
68871;BME280;55906;52.278;6.808;2023-06-14T00:50:52;101386.88;;;19.32;39.05
68871;BME280;55906;52.278;6.808;2023-06-14T00:53:19;101395.78;;;19.29;38.50
68871;BME280;55906;52.278;6.808;2023-06-14T00:55:48;101404.69;;;19.24;38.71
68871;BME280;55906;52.278;6.808;2023-06-14T00:58:15;101404.69;;;19.19;38.81
68871;BME280;55906;52.278;6.808;2023-06-14T01:00:42;101402.03;;;19.13;39.03
68871;BME280;55906;52.278;6.808;2023-06-14T01:03:09;101409.13;;;19.09;39.03
68871;BME280;55906;52.278;6.808;2023-06-14T01:05:38;101402.91;;;19.03;39.27
68871;BME280;55906;52.278;6.808;2023-06-14T01:08:17;101402.03;;;19.05;39.87
68871;BME280;55906;52.278;6.808;2023-06-14T01:10:53;101411.81;;;18.99;39.76
68871;BME280;55906;52.278;6.808;2023-06-14T01:13:27;101408.25;;;18.94;40.00
68871;BME280;55906;52.278;6.808;2023-06-14T01:15:55;101412.69;;;18.90;39.59
68871;BME280;55906;52.278;6.808;2023-06-14T01:18:22;101403.81;;;18.86;40.66
68871;BME280;55906;52.278;6.808;2023-06-14T01:20:51;101404.69;;;18.82;40.24
68871;BME280;55906;52.278;6.808;2023-06-14T01:23:22;101402.91;;;18.81;40.65
68871;BME280;55906;52.278;6.808;2023-06-14T01:25:50;101409.13;;;18.70;41.75
68871;BME280;55906;52.278;6.808;2023-06-14T01:35:06;101408.19;;;18.60;40.95
68871;BME280;55906;52.278;6.808;2023-06-14T01:37:33;101407.28;;;18.60;40.69
68871;BME280;55906;52.278;6.808;2023-06-14T01:40:03;101414.41;;;18.58;40.90
68871;BME280;55906;52.278;6.808;2023-06-14T01:42:32;101417.06;;;18.54;40.88
68871;BME280;55906;52.278;6.808;2023-06-14T01:45:00;101424.16;;;18.51;40.95
68871;BME280;55906;52.278;6.808;2023-06-14T01:47:29;101418.81;;;18.46;41.15
68871;BME280;55906;52.278;6.808;2023-06-14T01:49:56;101415.25;;;18.38;41.90
68871;BME280;55906;52.278;6.808;2023-06-14T01:52:22;101408.16;;;18.40;41.39
68871;BME280;55906;52.278;6.808;2023-06-14T01:54:49;101415.25;;;18.38;41.63
68871;BME280;55906;52.278;6.808;2023-06-14T01:57:17;101414.34;;;18.35;41.56
68871;BME280;55906;52.278;6.808;2023-06-14T01:59:44;101409.91;;;18.29;43.14
68871;BME280;55906;52.278;6.808;2023-06-14T02:02:13;101410.78;;;18.28;41.81
68871;BME280;55906;52.278;6.808;2023-06-14T02:04:40;101412.53;;;18.23;41.85
68871;BME280;55906;52.278;6.808;2023-06-14T02:07:07;101413.44;;;18.22;42.12
68871;BME280;55906;52.278;6.808;2023-06-14T02:09:34;101408.03;;;18.16;42.23
68871;BME280;55906;52.278;6.808;2023-06-14T02:12:01;101413.38;;;18.14;42.56
68871;BME280;55906;52.278;6.808;2023-06-14T02:14:29;101401.81;;;18.12;42.50
68871;BME280;55906;52.278;6.808;2023-06-14T02:16:56;101409.78;;;18.08;42.38
68871;BME280;55906;52.278;6.808;2023-06-14T02:19:22;101413.31;;;18.05;42.53
68871;BME280;55906;52.278;6.808;2023-06-14T02:21:49;101408.00;;;18.02;43.63
68871;BME280;55906;52.278;6.808;2023-06-14T02:24:16;101418.66;;;18.02;43.00
68871;BME280;55906;52.278;6.808;2023-06-14T02:26:42;101417.75;;;17.99;42.80
68871;BME280;55906;52.278;6.808;2023-06-14T02:29:09;101415.97;;;17.98;42.84
68871;BME280;55906;52.278;6.808;2023-06-14T02:31:40;101414.19;;;17.97;42.80
68871;BME280;55906;52.278;6.808;2023-06-14T02:34:06;101428.34;;;17.89;43.05
68871;BME280;55906;52.278;6.808;2023-06-14T02:36:34;101424.78;;;17.87;43.06
68871;BME280;55906;52.278;6.808;2023-06-14T02:39:05;101424.78;;;17.84;43.15
68871;BME280;55906;52.278;6.808;2023-06-14T02:41:32;101425.66;;;17.83;43.22
68871;BME280;55906;52.278;6.808;2023-06-14T02:43:59;101430.97;;;17.82;43.29
68871;BME280;55906;52.278;6.808;2023-06-14T02:46:26;101430.97;;;17.82;43.42
68871;BME280;55906;52.278;6.808;2023-06-14T02:48:54;101422.94;;;17.74;44.35
68871;BME280;55906;52.278;6.808;2023-06-14T02:51:20;101419.38;;;17.72;43.99
68871;BME280;55906;52.278;6.808;2023-06-14T02:53:47;101430.91;;;17.71;44.02
68871;BME280;55906;52.278;6.808;2023-06-14T02:56:14;101422.03;;;17.68;44.17
68871;BME280;55906;52.278;6.808;2023-06-14T02:58:42;101427.28;;;17.65;43.99
68871;BME280;55906;52.278;6.808;2023-06-14T03:01:09;101429.13;;;17.67;44.17
68871;BME280;55906;52.278;6.808;2023-06-14T03:03:38;101428.16;;;17.62;44.35
68871;BME280;55906;52.278;6.808;2023-06-14T03:06:06;101437.94;;;17.65;44.22
68871;BME280;55906;52.278;6.808;2023-06-14T03:08:33;101437.94;;;17.63;44.13
68871;BME280;55906;52.278;6.808;2023-06-14T03:11:04;101444.16;;;17.65;44.05
68871;BME280;55906;52.278;6.808;2023-06-14T03:13:31;101445.00;;;17.56;45.18
68871;BME280;55906;52.278;6.808;2023-06-14T03:15:58;101451.22;;;17.60;44.39
68871;BME280;55906;52.278;6.808;2023-06-14T03:18:28;101457.41;;;17.56;44.66
68871;BME280;55906;52.278;6.808;2023-06-14T03:20:55;101448.53;;;17.55;44.85
68871;BME280;55906;52.278;6.808;2023-06-14T03:23:24;101450.28;;;17.52;45.43
68871;BME280;55906;52.278;6.808;2023-06-14T03:25:52;101460.94;;;17.56;45.02
68871;BME280;55906;52.278;6.808;2023-06-14T03:28:18;101457.41;;;17.59;44.78
68871;BME280;55906;52.278;6.808;2023-06-14T03:30:45;101460.94;;;17.56;44.95
68871;BME280;55906;52.278;6.808;2023-06-14T03:33:12;101463.59;;;17.52;45.15
68871;BME280;55906;52.278;6.808;2023-06-14T03:35:39;101472.44;;;17.49;45.41
68871;BME280;55906;52.278;6.808;2023-06-14T03:38:05;101467.13;;;17.51;45.19
68871;BME280;55906;52.278;6.808;2023-06-14T03:40:33;101473.34;;;17.51;45.14
68871;BME280;55906;52.278;6.808;2023-06-14T03:43:00;101475.03;;;17.43;45.64
68871;BME280;55906;52.278;6.808;2023-06-14T03:45:26;101480.38;;;17.46;45.63
68871;BME280;55906;52.278;6.808;2023-06-14T03:47:53;101484.84;;;17.47;45.70
68871;BME280;55906;52.278;6.808;2023-06-14T03:50:20;101483.06;;;17.46;46.35
68871;BME280;55906;52.278;6.808;2023-06-14T03:52:48;101484.84;;;17.49;45.77
68871;BME280;55906;52.278;6.808;2023-06-14T03:55:15;101488.56;;;17.66;45.48
68871;BME280;55906;52.278;6.808;2023-06-14T03:57:43;101486.88;;;17.82;45.36
68871;BME280;55906;52.278;6.808;2023-06-14T04:00:11;101484.22;;;17.85;45.12
68871;BME280;55906;52.278;6.808;2023-06-14T04:02:38;101489.50;;;17.76;45.53
68871;BME280;55906;52.278;6.808;2023-06-14T04:05:05;101492.16;;;17.74;45.73
68871;BME280;55906;52.278;6.808;2023-06-14T04:07:34;101501.88;;;17.71;45.93
68871;BME280;55906;52.278;6.808;2023-06-14T04:10:06;101501.00;;;17.70;45.77
68871;BME280;55906;52.278;6.808;2023-06-14T04:12:32;101506.28;;;17.67;46.10
68871;BME280;55906;52.278;6.808;2023-06-14T04:15:01;101502.75;;;17.68;45.80
68871;BME280;55906;52.278;6.808;2023-06-14T04:17:28;101508.06;;;17.68;46.08
68871;BME280;55906;52.278;6.808;2023-06-14T04:19:55;101511.63;;;17.70;46.08
68871;BME280;55906;52.278;6.808;2023-06-14T04:22:23;101515.19;;;17.72;46.02
68871;BME280;55906;52.278;6.808;2023-06-14T04:24:54;101519.63;;;17.70;47.32
68871;BME280;55906;52.278;6.808;2023-06-14T04:27:21;101521.38;;;17.67;46.48
68871;BME280;55906;52.278;6.808;2023-06-14T04:29:51;101524.09;;;17.74;46.32
68871;BME280;55906;52.278;6.808;2023-06-14T04:32:23;101519.66;;;17.76;46.95
68871;BME280;55906;52.278;6.808;2023-06-14T04:34:52;101517.88;;;17.75;46.39
68871;BME280;55906;52.278;6.808;2023-06-14T04:37:20;101525.91;;;17.78;46.50
68871;BME280;55906;52.278;6.808;2023-06-14T04:39:47;101528.59;;;17.83;46.61
68871;BME280;55906;52.278;6.808;2023-06-14T04:42:14;101539.25;;;17.87;46.28
68871;BME280;55906;52.278;6.808;2023-06-14T04:44:41;101543.66;;;17.82;46.92
68871;BME280;55906;52.278;6.808;2023-06-14T04:47:08;101543.72;;;17.91;46.37
68871;BME280;55906;52.278;6.808;2023-06-14T04:49:38;101560.63;;;17.95;46.45
68871;BME280;55906;52.278;6.808;2023-06-14T04:52:06;101552.66;;;18.00;46.11
68871;BME280;55906;52.278;6.808;2023-06-14T04:54:35;101557.09;;;17.99;46.29
68871;BME280;55906;52.278;6.808;2023-06-14T04:57:03;101543.78;;;18.01;46.77
68871;BME280;55906;52.278;6.808;2023-06-14T04:59:31;101555.34;;;18.06;46.43
68871;BME280;55906;52.278;6.808;2023-06-14T05:01:58;101550.94;;;18.09;46.36
68871;BME280;55906;52.278;6.808;2023-06-14T05:04:26;101556.28;;;18.11;46.47
68871;BME280;55906;52.278;6.808;2023-06-14T05:06:54;101552.75;;;18.15;46.53
68871;BME280;55906;52.278;6.808;2023-06-14T05:09:21;101559.00;;;18.20;46.28
68871;BME280;55906;52.278;6.808;2023-06-14T05:11:48;101560.84;;;18.26;46.29
68871;BME280;55906;52.278;6.808;2023-06-14T05:14:16;101559.94;;;18.27;46.57
68871;BME280;55906;52.278;6.808;2023-06-14T05:16:42;101572.38;;;18.23;46.89
68871;BME280;55906;52.278;6.808;2023-06-14T05:19:09;101576.81;;;18.26;46.49
68871;BME280;55906;52.278;6.808;2023-06-14T05:21:36;101564.38;;;18.25;46.79
68871;BME280;55906;52.278;6.808;2023-06-14T05:24:05;101572.44;;;18.37;46.37
68871;BME280;55906;52.278;6.808;2023-06-14T05:26:32;101572.47;;;18.43;46.21
68871;BME280;55906;52.278;6.808;2023-06-14T05:28:59;101573.41;;;18.51;45.99
68871;BME280;55906;52.278;6.808;2023-06-14T05:31:26;101561.91;;;18.61;45.87
68871;BME280;55906;52.278;6.808;2023-06-14T05:33:53;101572.63;;;18.72;45.59
68871;BME280;55906;52.278;6.808;2023-06-14T05:36:20;101568.22;;;18.80;45.55
68871;BME280;55906;52.278;6.808;2023-06-14T05:38:47;101576.22;;;18.84;46.24
68871;BME280;55906;52.278;6.808;2023-06-14T05:41:15;101576.25;;;18.95;45.18
68871;BME280;55906;52.278;6.808;2023-06-14T05:43:42;101582.50;;;19.03;44.97
68871;BME280;55906;52.278;6.808;2023-06-14T05:46:09;101581.63;;;19.13;44.72
68871;BME280;55906;52.278;6.808;2023-06-14T05:48:35;101585.22;;;19.22;44.61
68871;BME280;55906;52.278;6.808;2023-06-14T05:51:02;101587.00;;;19.32;44.75
68871;BME280;55906;52.278;6.808;2023-06-14T05:53:29;101590.56;;;19.41;44.22
68871;BME280;55906;52.278;6.808;2023-06-14T05:55:55;101590.56;;;19.34;44.84
68871;BME280;55906;52.278;6.808;2023-06-14T05:58:23;101590.56;;;19.41;44.62
68871;BME280;55906;52.278;6.808;2023-06-14T06:00:50;101599.56;;;19.57;43.98
68871;BME280;55906;52.278;6.808;2023-06-14T06:03:18;101595.09;;;19.67;43.76
68871;BME280;55906;52.278;6.808;2023-06-14T06:05:46;101600.44;;;19.79;43.68
68871;BME280;55906;52.278;6.808;2023-06-14T06:08:12;101595.09;;;19.85;44.04
68871;BME280;55906;52.278;6.808;2023-06-14T06:10:39;101598.66;;;19.95;43.35
68871;BME280;55906;52.278;6.808;2023-06-14T06:13:06;101597.75;;;20.03;43.93
68871;BME280;55906;52.278;6.808;2023-06-14T06:15:34;101595.97;;;20.10;43.43
68871;BME280;55906;52.278;6.808;2023-06-14T06:18:01;101602.16;;;20.24;43.19
68871;BME280;55906;52.278;6.808;2023-06-14T06:20:27;101600.38;;;20.32;42.79
68871;BME280;55906;52.278;6.808;2023-06-14T06:22:56;101601.25;;;20.43;43.35
68871;BME280;55906;52.278;6.808;2023-06-14T06:25:22;101590.56;;;20.50;42.32
68871;BME280;55906;52.278;6.808;2023-06-14T06:27:51;101602.09;;;20.61;42.24
68871;BME280;55906;52.278;6.808;2023-06-14T06:30:18;101602.94;;;20.72;42.12
68871;BME280;55906;52.278;6.808;2023-06-14T06:32:46;101596.69;;;20.79;41.69
68871;BME280;55906;52.278;6.808;2023-06-14T06:35:14;101599.31;;;20.91;41.67
68871;BME280;55906;52.278;6.808;2023-06-14T06:37:42;101603.72;;;21.03;41.01
68871;BME280;55906;52.278;6.808;2023-06-14T06:40:09;101608.16;;;21.10;40.91
68871;BME280;55906;52.278;6.808;2023-06-14T06:42:36;101599.22;;;21.13;40.96
68871;BME280;55906;52.278;6.808;2023-06-14T06:45:03;101606.31;;;21.23;40.77
68871;BME280;55906;52.278;6.808;2023-06-14T06:47:30;101608.03;;;21.33;40.74
68871;BME280;55906;52.278;6.808;2023-06-14T06:49:58;101609.78;;;21.37;39.60
68871;BME280;55906;52.278;6.808;2023-06-14T06:52:25;101613.28;;;21.48;39.59
68871;BME280;55906;52.278;6.808;2023-06-14T06:54:52;101620.34;;;21.58;39.78
68871;BME280;55906;52.278;6.808;2023-06-14T06:57:20;101624.75;;;21.67;39.77
68871;BME280;55906;52.278;6.808;2023-06-14T06:59:48;101620.19;;;21.80;39.15
68871;BME280;55906;52.278;6.808;2023-06-14T07:02:14;101625.41;;;21.95;39.11
68871;BME280;55906;52.278;6.808;2023-06-14T07:04:41;101622.66;;;22.07;38.81
68871;BME280;55906;52.278;6.808;2023-06-14T07:07:09;101616.34;;;22.17;38.59
68871;BME280;55906;52.278;6.808;2023-06-14T07:09:36;101620.72;;;22.26;38.96
68871;BME280;55906;52.278;6.808;2023-06-14T07:12:03;101623.34;;;22.29;38.21
68871;BME280;55906;52.278;6.808;2023-06-14T07:14:30;101630.44;;;22.34;37.56
68871;BME280;55906;52.278;6.808;2023-06-14T07:16:57;101634.66;;;22.58;38.07
68871;BME280;55906;52.278;6.808;2023-06-14T07:19:23;101636.28;;;22.72;37.58
68871;BME280;55906;52.278;6.808;2023-06-14T07:21:50;101637.19;;;22.72;36.80
68871;BME280;55906;52.278;6.808;2023-06-14T07:24:19;101640.69;;;22.77;36.60
68871;BME280;55906;52.278;6.808;2023-06-14T07:26:46;101643.38;;;22.77;36.45
68871;BME280;55906;52.278;6.808;2023-06-14T07:29:14;101639.78;;;22.78;35.89
68871;BME280;55906;52.278;6.808;2023-06-14T07:31:41;101637.06;;;22.84;35.69
68871;BME280;55906;52.278;6.808;2023-06-14T07:34:08;101636.06;;;22.93;35.66
68871;BME280;55906;52.278;6.808;2023-06-14T07:36:35;101644.16;;;22.88;35.60
68871;BME280;55906;52.278;6.808;2023-06-14T07:39:02;101636.88;;;22.99;35.98
68871;BME280;55906;52.278;6.808;2023-06-14T07:41:32;101638.50;;;23.11;35.56
68871;BME280;55906;52.278;6.808;2023-06-14T07:43:59;101635.84;;;23.08;35.03
68871;BME280;55906;52.278;6.808;2023-06-14T07:46:26;101648.34;;;23.11;35.02
68871;BME280;55906;52.278;6.808;2023-06-14T07:48:52;101633.81;;;23.25;34.33
68871;BME280;55906;52.278;6.808;2023-06-14T07:51:19;101651.84;;;23.16;33.80
68871;BME280;55906;52.278;6.808;2023-06-14T07:53:47;101647.06;;;23.39;33.66
68871;BME280;55906;52.278;6.808;2023-06-14T07:56:14;101652.28;;;23.54;33.75
68871;BME280;55906;52.278;6.808;2023-06-14T07:58:48;101644.88;;;23.69;33.62
68871;BME280;55906;52.278;6.808;2023-06-14T08:01:15;101642.97;;;23.75;33.54
68871;BME280;55906;52.278;6.808;2023-06-14T08:03:42;101629.59;;;23.72;33.33
68871;BME280;55906;52.278;6.808;2023-06-14T08:06:09;101636.66;;;23.79;32.92
68871;BME280;55906;52.278;6.808;2023-06-14T08:08:36;101645.28;;;23.98;32.77
68871;BME280;55906;52.278;6.808;2023-06-14T08:11:02;101647.06;;;23.99;32.72
68871;BME280;55906;52.278;6.808;2023-06-14T08:13:29;101644.44;;;23.94;32.33
68871;BME280;55906;52.278;6.808;2023-06-14T08:15:57;101643.34;;;24.06;32.01
68871;BME280;55906;52.278;6.808;2023-06-14T08:18:25;101648.50;;;24.18;31.41
68871;BME280;55906;52.278;6.808;2023-06-14T08:20:52;101642.13;;;24.27;31.25
68871;BME280;55906;52.278;6.808;2023-06-14T08:23:19;101640.22;;;24.32;30.81
68871;BME280;55906;52.278;6.808;2023-06-14T08:25:47;101644.56;;;24.39;31.04
68871;BME280;55906;52.278;6.808;2023-06-14T08:28:13;101641.78;;;24.44;31.04
68871;BME280;55906;52.278;6.808;2023-06-14T08:30:41;101639.91;;;24.49;31.50
68871;BME280;55906;52.278;6.808;2023-06-14T08:33:09;101628.03;;;24.59;30.71
68871;BME280;55906;52.278;6.808;2023-06-14T08:35:36;101629.56;;;24.74;31.25
68871;BME280;55906;52.278;6.808;2023-06-14T08:38:04;101630.94;;;24.95;31.20
68871;BME280;55906;52.278;6.808;2023-06-14T08:40:31;101640.78;;;24.97;30.34
68871;BME280;55906;52.278;6.808;2023-06-14T08:43:03;101639.25;;;24.82;30.24
68871;BME280;55906;52.278;6.808;2023-06-14T08:45:30;101643.41;;;25.00;29.38
68871;BME280;55906;52.278;6.808;2023-06-14T08:47:56;101627.94;;;25.10;29.99
68871;BME280;55906;52.278;6.808;2023-06-14T08:50:27;101628.13;;;25.01;29.45
68871;BME280;55906;52.278;6.808;2023-06-14T08:52:57;101627.19;;;25.03;29.70
68871;BME280;55906;52.278;6.808;2023-06-14T08:55:26;101623.88;;;24.89;29.15
68871;BME280;55906;52.278;6.808;2023-06-14T08:57:55;101631.28;;;25.21;29.36
68871;BME280;55906;52.278;6.808;2023-06-14T09:00:23;101627.72;;;25.19;29.24
68871;BME280;55906;52.278;6.808;2023-06-14T09:02:51;101633.56;;;25.39;29.46
68871;BME280;55906;52.278;6.808;2023-06-14T09:05:22;101632.34;;;25.52;29.12
68871;BME280;55906;52.278;6.808;2023-06-14T09:07:50;101631.03;;;25.70;29.07
68871;BME280;55906;52.278;6.808;2023-06-14T09:10:18;101634.50;;;25.75;29.05
68871;BME280;55906;52.278;6.808;2023-06-14T09:12:45;101618.75;;;25.94;29.49
68871;BME280;55906;52.278;6.808;2023-06-14T09:15:12;101636.69;;;26.32;28.47
68871;BME280;55906;52.278;6.808;2023-06-14T09:17:40;101634.78;;;26.68;28.21
68871;BME280;55906;52.278;6.808;2023-06-14T09:20:08;101636.09;;;26.85;28.26
68871;BME280;55906;52.278;6.808;2023-06-14T09:22:36;101630.50;;;26.91;28.09
68871;BME280;55906;52.278;6.808;2023-06-14T09:25:05;101631.19;;;27.28;27.18
68871;BME280;55906;52.278;6.808;2023-06-14T09:27:33;101635.88;;;27.81;27.63
68871;BME280;55906;52.278;6.808;2023-06-14T09:30:02;101636.59;;;28.39;26.63
68871;BME280;55906;52.278;6.808;2023-06-14T09:32:29;101630.44;;;28.58;27.05
68871;BME280;55906;52.278;6.808;2023-06-14T09:34:56;101627.31;;;28.46;26.90
68871;BME280;55906;52.278;6.808;2023-06-14T09:37:27;101629.63;;;29.28;25.98
68871;BME280;55906;52.278;6.808;2023-06-14T09:39:55;101636.94;;;29.71;25.08
68871;BME280;55906;52.278;6.808;2023-06-14T09:42:23;101623.44;;;30.13;25.54
68871;BME280;55906;52.278;6.808;2023-06-14T09:44:52;101621.59;;;30.34;24.62
68871;BME280;55906;52.278;6.808;2023-06-14T09:47:19;101631.59;;;30.34;24.44
68871;BME280;55906;52.278;6.808;2023-06-14T09:49:46;101635.13;;;30.95;23.78
68871;BME280;55906;52.278;6.808;2023-06-14T09:52:15;101633.00;;;30.83;23.94
68871;BME280;55906;52.278;6.808;2023-06-14T09:54:43;101628.97;;;31.10;23.52
68871;BME280;55906;52.278;6.808;2023-06-14T09:57:12;101637.56;;;31.40;23.74
68871;BME280;55906;52.278;6.808;2023-06-14T09:59:42;101635.63;;;31.97;22.95
68871;BME280;55906;52.278;6.808;2023-06-14T10:02:13;101632.28;;;32.09;22.95
68871;BME280;55906;52.278;6.808;2023-06-14T10:04:46;101638.06;;;31.48;22.72
68871;BME280;55906;52.278;6.808;2023-06-14T10:07:14;101645.84;;;31.75;21.93
68871;BME280;55906;52.278;6.808;2023-06-14T10:09:45;101636.53;;;32.15;22.48
68871;BME280;55906;52.278;6.808;2023-06-14T10:12:16;101633.91;;;32.31;21.53
68871;BME280;55906;52.278;6.808;2023-06-14T10:14:48;101633.91;;;32.83;21.66
68871;BME280;55906;52.278;6.808;2023-06-14T10:17:22;101638.69;;;33.11;20.66
68871;BME280;55906;52.278;6.808;2023-06-14T10:19:55;101630.91;;;32.87;20.06
68871;BME280;55906;52.278;6.808;2023-06-14T10:22:27;101632.72;;;32.54;20.26
68871;BME280;55906;52.278;6.808;2023-06-14T10:24:55;101643.38;;;32.41;20.84
68871;BME280;55906;52.278;6.808;2023-06-14T10:27:22;101631.72;;;32.89;20.60
68871;BME280;55906;52.278;6.808;2023-06-14T10:30:06;101645.88;;;32.96;19.62
68871;BME280;55906;52.278;6.808;2023-06-14T10:32:34;101644.69;;;33.17;20.23
68871;BME280;55906;52.278;6.808;2023-06-14T10:35:04;101643.22;;;33.59;19.65
68871;BME280;55906;52.278;6.808;2023-06-14T10:37:31;101653.38;;;33.88;19.52
68871;BME280;55906;52.278;6.808;2023-06-14T10:39:58;101633.81;;;33.64;19.24
68871;BME280;55906;52.278;6.808;2023-06-14T10:42:28;101640.22;;;33.63;18.92
68871;BME280;55906;52.278;6.808;2023-06-14T10:44:55;101639.13;;;33.83;19.07
68871;BME280;55906;52.278;6.808;2023-06-14T10:47:28;101645.44;;;33.52;19.85
68871;BME280;55906;52.278;6.808;2023-06-14T10:49:56;101635.38;;;33.68;19.27
68871;BME280;55906;52.278;6.808;2023-06-14T10:52:26;101625.34;;;34.00;19.11
68871;BME280;55906;52.278;6.808;2023-06-14T10:55:06;101623.94;;;34.23;18.95
68871;BME280;55906;52.278;6.808;2023-06-14T10:57:35;101622.09;;;34.68;19.32
68871;BME280;55906;52.278;6.808;2023-06-14T11:00:03;101625.22;;;34.62;19.40
68871;BME280;55906;52.278;6.808;2023-06-14T11:02:52;101620.75;;;34.01;18.93
68871;BME280;55906;52.278;6.808;2023-06-14T11:05:25;101617.75;;;34.06;19.31
68871;BME280;55906;52.278;6.808;2023-06-14T11:08:02;101617.19;;;34.59;19.13
68871;BME280;55906;52.278;6.808;2023-06-14T11:10:39;101609.72;;;35.87;17.67
68871;BME280;55906;52.278;6.808;2023-06-14T11:13:06;101600.81;;;36.76;17.37
68871;BME280;55906;52.278;6.808;2023-06-14T11:15:34;101602.22;;;37.43;16.44
68871;BME280;55906;52.278;6.808;2023-06-14T11:18:04;101593.56;;;37.37;16.02
68871;BME280;55906;52.278;6.808;2023-06-14T11:20:32;101612.22;;;37.68;15.88
68871;BME280;55906;52.278;6.808;2023-06-14T11:22:59;101601.41;;;38.02;15.54
68871;BME280;55906;52.278;6.808;2023-06-14T11:25:26;101597.19;;;38.44;15.27
68871;BME280;55906;52.278;6.808;2023-06-14T11:27:53;101586.81;;;38.13;14.93
68871;BME280;55906;52.278;6.808;2023-06-14T11:30:21;101609.44;;;38.51;14.98
68871;BME280;55906;52.278;6.808;2023-06-14T11:32:49;101594.47;;;39.00;14.40
68871;BME280;55906;52.278;6.808;2023-06-14T11:35:17;101593.53;;;39.66;14.44
68871;BME280;55906;52.278;6.808;2023-06-14T11:37:44;101598.50;;;39.18;14.53
68871;BME280;55906;52.278;6.808;2023-06-14T11:40:12;101596.91;;;39.16;14.23
68871;BME280;55906;52.278;6.808;2023-06-14T11:42:40;101591.91;;;39.64;14.53
68871;BME280;55906;52.278;6.808;2023-06-14T11:45:08;101602.22;;;40.15;13.95
68871;BME280;55906;52.278;6.808;2023-06-14T11:47:35;101598.25;;;40.08;14.06
68871;BME280;55906;52.278;6.808;2023-06-14T11:50:03;101578.91;;;40.60;13.76
68871;BME280;55906;52.278;6.808;2023-06-14T11:52:32;101601.50;;;40.34;13.75
68871;BME280;55906;52.278;6.808;2023-06-14T11:54:59;101595.53;;;40.49;12.98
68871;BME280;55906;52.278;6.808;2023-06-14T11:57:26;101598.13;;;40.30;12.98
68871;BME280;55906;52.278;6.808;2023-06-14T11:59:55;101595.22;;;40.11;12.55
68871;BME280;55906;52.278;6.808;2023-06-14T12:02:22;101594.31;;;40.63;12.58
68871;BME280;55906;52.278;6.808;2023-06-14T12:04:50;101598.59;;;39.82;12.35
68871;BME280;55906;52.278;6.808;2023-06-14T12:07:18;101593.63;;;40.08;12.84
68871;BME280;55906;52.278;6.808;2023-06-14T12:10:08;101600.66;;;39.69;12.86
68871;BME280;55906;52.278;6.808;2023-06-14T12:12:37;101584.22;;;40.52;12.92
68871;BME280;55906;52.278;6.808;2023-06-14T12:15:05;101587.09;;;41.02;12.46
68871;BME280;55906;52.278;6.808;2023-06-14T12:17:33;101591.56;;;40.93;12.19
68871;BME280;55906;52.278;6.808;2023-06-14T12:20:05;101592.00;;;41.29;12.29
68871;BME280;55906;52.278;6.808;2023-06-14T12:22:35;101589.38;;;40.67;12.39
68871;BME280;55906;52.278;6.808;2023-06-14T12:25:02;101586.31;;;41.21;12.45
68871;BME280;55906;52.278;6.808;2023-06-14T12:27:30;101595.25;;;41.13;11.76
68871;BME280;55906;52.278;6.808;2023-06-14T12:30:01;101584.00;;;40.96;12.11
68871;BME280;55906;52.278;6.808;2023-06-14T12:32:28;101591.13;;;40.26;12.71
68871;BME280;55906;52.278;6.808;2023-06-14T12:34:55;101590.06;;;40.59;12.22
68871;BME280;55906;52.278;6.808;2023-06-14T12:37:22;101597.13;;;40.10;12.45
68871;BME280;55906;52.278;6.808;2023-06-14T12:39:49;101589.53;;;39.91;12.74
68871;BME280;55906;52.278;6.808;2023-06-14T12:42:16;101587.56;;;39.93;12.22
68871;BME280;55906;52.278;6.808;2023-06-14T12:44:45;101592.19;;;40.14;12.89
68871;BME280;55906;52.278;6.808;2023-06-14T12:47:11;101594.91;;;40.67;12.04
68871;BME280;55906;52.278;6.808;2023-06-14T12:49:39;101573.97;;;41.35;12.19
68871;BME280;55906;52.278;6.808;2023-06-14T12:52:08;101593.41;;;41.83;11.85
68871;BME280;55906;52.278;6.808;2023-06-14T12:54:35;101587.16;;;42.00;11.68
68871;BME280;55906;52.278;6.808;2023-06-14T12:57:02;101580.75;;;42.00;11.72
68871;BME280;55906;52.278;6.808;2023-06-14T12:59:29;101592.69;;;42.20;11.27
68871;BME280;55906;52.278;6.808;2023-06-14T13:02:09;101594.22;;;42.41;11.29